Main page
METAR-TAF:

METAR-TAF

Airports :

Agen La Garenne Airport

Agen, France

latitude: 44-11N, longitude: 000-36E, elevation: 61 m

Current weather observation

The report was made 21 minutes ago, at 04:00 UTC
Wind 4 kt from the West
Temperature 3°C
Humidity 93%
Pressure 1031 hPa
Visibility 10 km or more
no clouds below 1500 m and no cumulonimbus

METAR: LFBA 270400Z AUTO 28004KT CAVOK 03/02 Q1031

Time: 05:21 (04:21 UTC)

Forecast

The report was made 9 hours and 8 minutes ago, at 19:13 UTC
Forecast valid from 26 at 19 UTC to 27 at 03 UTC
Wind 3 kt from variable directions
Visibility: 3000 m
Few clouds at a height of 1200 ft
mist
Temporary
from 26 at 19 UTC to 26 at 21 UTC
Broken clouds at a height of 900 ft

TAF: LFBA 261913Z 2619/2703 VRB03KT 3000 BR FEW012 TEMPO 2619/2621 BKN009

Weather observations and forecasts of more than 4000 airports (METAR and TAF reports).

The available stations are represented by yellow and red dots on the map.

Hover mouse over dot to see the name of the station.

Then click to see weather observations and forecasts.

To change the map : click on the green buttons with a black cross to zoom in, on the green button with a dash to zoom out, or on the green arrows for adjacent maps.


METAR-TAF: